Airfield :
LOGIN :

Register | Disclaimer

   EN    FR    IT 

 










Legend :    VFR   Marginal VFR   IFR   Intensive IFR   Very Intensive IFR
Visi :
Ceiling :
>= 8 km
>= 3000ft
5 to 8 km
1000 to 3000 ft
1500m to 5 km
500 to 1000 ft
800 to 1500m
200 to 500 ft
< 800m
< 200 ft
Symbols :   Thunderstorms  Fog  Heavy snow  Heavy precipitations  Wind > 20 kt
SIGMETs :     Misc.  Thunderstorms  Icing  Turbulence  Mountain Waves  Volcanic Ashes






- Airport Elevation : 219 ft
- IATA code : DNR


LFRD - Dinard

CURRENT METAR :
  • 262130Z AUTO 21007KT 9999 FEW022 BKN062 OVC170 09/09 Q1011 TEMPO BKN008

EXPIRED METARs :
  • 262100Z AUTO 21008KT 9999 SCT049 OVC058 10/09 Q1010 TEMPO BKN008
  • 262030Z AUTO 20011KT 9999 BKN046 OVC052 10/09 Q1010 TEMPO BKN008
  • 262000Z AUTO 22015KT 9999 -RADZ FEW013/// SCT029/// OVC036/// ///TCU 10/09 Q1010 TEMPO BKN008
  • 261930Z AUTO 21017KT 9999 SCT013/// BKN018/// BKN039/// ///TCU 11/10 Q1010 TEMPO BKN008
  • 261900Z AUTO 20016KT 9999 BKN010/// BKN019/// OVC047/// ///TCU 10/10 Q1010 TEMPO 3000 RA BKN008

TAF TAF LFRD
Valid from the 26 at 18:00 until the 27 at 18:00 UTC


261700Z 2618/2718 20015G30KT 9999 BKN020
TEMPO 2618/2620 3000 RA BKN007 BKN015TCU
BECMG 2618/2620 21010KT
PROB30
TEMPO 2620/2709 BKN008
PROB30
TEMPO 2702/2706 3000 RA
TEMPO 2709/2718 3000 SHRA BKN012TCU
PROB30
TEMPO 2710/2716 23015G25KT 3000 SHRA BKN010CB
PROB40
TEMPO 2716/2718 23015G30KT 3000 TSRAGS BKN010CB
ATIS : +33 2 99 16 81 50



MET'MAP, your aeronautical weather chart ! - Copyright ORBIFLY December 2007 - Disclaimer

ORBIFLY MET'MAP TEAM :

Programming & Development : Alexandra Zaïnal
Concept & original design : Baudouin d'Aumeries
Assistance for programming : Marc-Olivier Méhu
Technical & hardware support : Manuel Goepfert

Contact : metmap@orbifly.com




SOURCES & CREDITS :

   NOAA